createdAt,value
2024-01-22T00:01:23.989Z,43.47
2024-01-22T00:04:26.758Z,43.85
2024-01-22T00:07:29.522Z,46.53
2024-01-22T00:10:32.211Z,38.87
2024-01-22T00:13:34.873Z,38.70
2024-01-22T00:16:41.096Z,42.05
2024-01-22T00:19:43.955Z,32.67
2024-01-22T00:22:46.708Z,42.85
2024-01-22T00:25:49.374Z,32.80
2024-01-22T00:28:52.007Z,37.50
2024-01-22T00:31:54.666Z,39.22
2024-01-22T00:34:57.378Z,40.70
2024-01-22T00:38:00.118Z,39.85
2024-01-22T00:41:05.417Z,47.57
2024-01-22T00:44:08.205Z,39.87
2024-01-22T00:47:11.098Z,37.25
2024-01-22T00:50:14.144Z,33.88
2024-01-22T00:53:16.810Z,37.95
2024-01-22T00:56:19.492Z,36.07
2024-01-22T00:59:22.143Z,36.33
2024-01-22T01:02:24.789Z,36.15
2024-01-22T01:05:28.111Z,32.75
2024-01-22T01:08:33.468Z,31.52
2024-01-22T01:11:36.277Z,35.03
2024-01-22T01:14:38.977Z,38.37
2024-01-22T01:17:41.690Z,36.30
2024-01-22T01:20:44.508Z,36.25
2024-01-22T01:23:47.173Z,39.10
2024-01-22T01:26:53.081Z,45.13
2024-01-22T01:29:55.821Z,33.97
2024-01-22T01:32:58.724Z,48.53
2024-01-22T01:36:01.608Z,48.95
2024-01-22T01:39:04.610Z,43.78
2024-01-22T01:42:07.644Z,44.50
2024-01-22T01:45:18.069Z,39.87
2024-01-22T01:48:21.504Z,39.55
2024-01-22T01:51:25.602Z,43.80
2024-01-22T01:54:29.897Z,34.40
2024-01-22T01:57:33.037Z,34.17
2024-01-22T02:00:36.131Z,38.53
2024-01-22T02:03:41.639Z,43.70
2024-01-22T02:06:44.538Z,41.13
2024-01-22T02:09:52.314Z,40.30
2024-01-22T02:12:54.948Z,42.10
2024-01-22T02:15:57.690Z,39.80
2024-01-22T02:19:00.549Z,37.40
2024-01-22T02:22:03.254Z,34.35
2024-01-22T02:25:06.474Z,35.10
2024-01-22T02:28:09.313Z,30.77
2024-01-22T02:31:11.976Z,39.43
2024-01-22T02:34:14.698Z,30.00
2024-01-22T02:37:17.455Z,32.72
2024-01-22T02:40:20.109Z,34.78
2024-01-22T02:43:22.774Z,34.13
2024-01-22T02:46:28.438Z,34.17
2024-01-22T02:49:31.208Z,31.23
2024-01-22T02:52:33.884Z,32.88
2024-01-22T02:55:36.560Z,33.88
2024-01-22T02:58:39.316Z,33.40
2024-01-22T03:01:42.073Z,36.30
2024-01-22T03:04:45.176Z,42.25
2024-01-22T03:07:47.832Z,33.80
2024-01-22T03:10:50.757Z,31.70
2024-01-22T03:13:53.421Z,25.87
2024-01-22T03:16:56.051Z,35.23
2024-01-22T03:19:58.708Z,43.35
2024-01-22T03:23:01.325Z,27.23
2024-01-22T03:26:03.943Z,41.05
2024-01-22T03:29:06.634Z,31.33
2024-01-22T03:32:09.290Z,36.97
2024-01-22T03:35:11.944Z,25.80
2024-01-22T03:38:15.034Z,30.48
2024-01-22T03:41:18.037Z,37.38
2024-01-22T03:44:20.691Z,31.17
2024-01-22T03:47:23.400Z,30.63
2024-01-22T03:50:26.117Z,32.65
2024-01-22T03:53:28.941Z,38.95
2024-01-22T03:56:31.555Z,22.92
2024-01-22T03:59:38.551Z,35.83
2024-01-22T04:02:41.316Z,28.13
2024-01-22T04:05:44.299Z,28.40
2024-01-22T04:08:47.542Z,32.47
2024-01-22T04:11:50.391Z,38.08
2024-01-22T04:14:53.327Z,33.53
2024-01-22T04:17:56.093Z,39.37
2024-01-22T04:20:58.952Z,35.67
2024-01-22T04:24:01.693Z,34.08
2024-01-22T04:27:04.628Z,33.83
2024-01-22T04:30:08.046Z,30.77
2024-01-22T04:33:13.656Z,35.37
2024-01-22T04:36:16.564Z,32.75
2024-01-22T04:39:20.846Z,38.35
2024-01-22T04:42:23.680Z,29.30
2024-01-22T04:45:26.398Z,33.53
2024-01-22T04:48:29.296Z,44.77
2024-01-22T04:51:32.004Z,34.53
2024-01-22T04:54:34.652Z,34.42
2024-01-22T04:57:37.330Z,36.83
2024-01-22T05:00:40.003Z,38.03
2024-01-22T05:03:42.687Z,89.80
2024-01-22T05:06:45.537Z,99.90
2024-01-22T05:09:48.340Z,108.95
2024-01-22T05:12:51.074Z,109.78
2024-01-22T05:15:53.796Z,88.07
2024-01-22T05:18:58.912Z,67.03
2024-01-22T05:22:01.733Z,65.43
2024-01-22T05:25:04.922Z,65.50
2024-01-22T05:28:07.585Z,45.10
2024-01-22T05:31:10.297Z,83.60
2024-01-22T05:34:13.021Z,67.27
2024-01-22T05:37:15.774Z,82.78
2024-01-22T05:40:18.504Z,72.10
2024-01-22T05:43:21.193Z,72.07
2024-01-22T05:46:23.861Z,57.80
2024-01-22T05:49:29.998Z,32.70
2024-01-22T05:52:33.435Z,44.33
2024-01-22T05:55:36.701Z,52.92
2024-01-22T05:58:39.354Z,56.20
2024-01-22T06:01:42.354Z,46.37
2024-01-22T06:04:45.101Z,41.63
2024-01-22T06:07:49.048Z,56.10
2024-01-22T06:10:52.282Z,45.58
2024-01-22T06:14:01.775Z,56.20
2024-01-22T06:17:12.233Z,57.07
2024-01-22T06:20:15.355Z,62.00
2024-01-22T06:23:18.201Z,48.67
2024-01-22T06:26:26.983Z,47.38
2024-01-22T06:29:31.494Z,55.53
2024-01-22T06:32:34.478Z,56.73
2024-01-22T06:35:38.106Z,70.20
2024-01-22T06:38:40.901Z,59.20
2024-01-22T06:41:43.591Z,85.25
2024-01-22T06:44:46.257Z,82.03
2024-01-22T06:47:49.418Z,73.73
2024-01-22T06:50:52.690Z,73.77
2024-01-22T06:53:55.369Z,58.10
2024-01-22T06:56:58.078Z,68.28
2024-01-22T07:00:06.290Z,67.88
2024-01-22T07:03:09.829Z,74.83
2024-01-22T07:06:12.735Z,53.57
2024-01-22T07:09:17.402Z,59.50
2024-01-22T07:12:21.342Z,64.75
2024-01-22T07:15:24.275Z,65.57
2024-01-22T07:18:27.090Z,71.43
2024-01-22T07:21:29.858Z,64.80
2024-01-22T07:24:32.983Z,83.88
2024-01-22T07:27:39.137Z,79.32
2024-01-22T07:30:41.814Z,82.13
2024-01-22T07:33:44.733Z,92.67
2024-01-22T07:36:48.053Z,103.37
2024-01-22T07:39:50.711Z,91.93
2024-01-22T07:42:53.590Z,81.05
2024-01-22T07:45:58.233Z,101.80
2024-01-22T07:49:01.996Z,113.27
2024-01-22T07:52:04.938Z,98.13
2024-01-22T07:55:09.224Z,91.60
2024-01-22T07:58:14.138Z,114.68
2024-01-22T08:01:17.048Z,92.13
2024-01-22T08:04:19.925Z,117.30
2024-01-22T08:07:23.944Z,98.57
2024-01-22T08:10:26.750Z,91.72
2024-01-22T08:13:29.488Z,83.70
2024-01-22T08:16:32.166Z,83.03
2024-01-22T08:19:36.224Z,92.17
2024-01-22T08:22:39.797Z,84.13
2024-01-22T08:25:42.468Z,79.57
2024-01-22T08:28:46.298Z,89.97
2024-01-22T08:31:49.023Z,72.60
2024-01-22T08:34:51.912Z,61.07
2024-01-22T08:37:56.110Z,66.03
2024-01-22T08:40:58.784Z,64.07
2024-01-22T08:44:03.333Z,57.33
2024-01-22T08:47:06.029Z,65.43
2024-01-22T08:50:09.007Z,42.23
2024-01-22T08:53:11.915Z,52.63
2024-01-22T08:56:17.293Z,37.08
2024-01-22T08:59:20.008Z,31.58
2024-01-22T09:02:22.630Z,29.15
2024-01-22T09:05:25.334Z,30.87
2024-01-22T09:08:28.430Z,26.67
2024-01-22T09:11:31.008Z,27.00
2024-01-22T09:14:33.654Z,27.70
2024-01-22T09:17:38.331Z,33.88
2024-01-22T09:20:41.091Z,24.40
2024-01-22T09:23:43.808Z,27.97
2024-01-22T09:26:46.904Z,29.90
2024-01-22T09:29:52.154Z,27.23
2024-01-22T09:32:59.190Z,33.53
2024-01-22T09:36:05.222Z,29.60
2024-01-22T09:39:08.666Z,32.43
2024-01-22T09:42:15.707Z,35.90
2024-01-22T09:45:19.467Z,37.42
2024-01-22T09:48:22.614Z,27.73
2024-01-22T09:51:25.501Z,30.77
2024-01-22T09:54:30.966Z,38.43
2024-01-22T09:57:34.004Z,32.47
2024-01-22T10:00:39.210Z,36.10
2024-01-22T10:03:42.494Z,34.40
2024-01-22T10:06:47.542Z,35.90
2024-01-22T10:09:50.291Z,33.00
2024-01-22T10:13:05.503Z,33.58
2024-01-22T10:16:11.662Z,32.60
2024-01-22T10:19:14.427Z,33.13
2024-01-22T10:22:21.063Z,28.23
2024-01-22T10:25:24.552Z,30.43
2024-01-22T10:28:27.278Z,30.75
2024-01-22T10:31:31.191Z,29.63
2024-01-22T10:34:45.085Z,26.48
2024-01-22T10:38:05.866Z,36.50
2024-01-22T10:41:21.714Z,39.70
2024-01-22T10:44:25.070Z,34.47
2024-01-22T10:47:31.424Z,39.85
2024-01-22T10:50:37.954Z,40.25
2024-01-22T10:53:41.327Z,32.17
2024-01-22T10:56:51.863Z,39.97
2024-01-22T11:00:00.853Z,36.72
2024-01-22T11:03:05.894Z,41.60
2024-01-22T11:06:10.902Z,37.85
2024-01-22T11:09:18.286Z,34.20
2024-01-22T11:12:23.708Z,28.37
2024-01-22T11:15:26.510Z,33.17
2024-01-22T11:18:31.242Z,36.65
2024-01-22T11:21:45.113Z,32.15
2024-01-22T11:25:04.245Z,26.40
2024-01-22T11:28:10.630Z,33.93
2024-01-22T11:31:27.210Z,35.10
2024-01-22T11:34:39.850Z,32.83
2024-01-22T11:37:45.104Z,29.80
2024-01-22T11:40:54.100Z,31.83
2024-01-22T11:43:57.422Z,31.83
2024-01-22T11:47:06.841Z,29.10
2024-01-22T11:50:09.989Z,27.85
2024-01-22T11:53:12.859Z,27.90
2024-01-22T11:56:16.635Z,32.57
2024-01-22T11:59:19.455Z,27.97
2024-01-22T12:02:22.318Z,30.30
2024-01-22T12:05:25.166Z,29.75
2024-01-22T12:08:28.391Z,25.30
2024-01-22T12:11:50.698Z,30.47
2024-01-22T12:15:00.303Z,29.10
2024-01-22T12:18:04.447Z,24.75
2024-01-22T12:21:09.403Z,29.15
2024-01-22T12:24:16.314Z,30.88
2024-01-22T12:27:21.356Z,26.83
2024-01-22T12:30:25.124Z,26.27
2024-01-22T12:33:29.720Z,26.05
2024-01-22T12:36:35.334Z,24.73
2024-01-22T12:39:38.929Z,24.88
2024-01-22T12:42:48.432Z,21.93
2024-01-22T12:46:04.479Z,28.90
2024-01-22T12:49:07.358Z,24.50
2024-01-22T12:52:11.630Z,26.27
2024-01-22T12:55:18.138Z,26.25
2024-01-22T12:58:21.310Z,24.40
2024-01-22T13:01:24.201Z,22.87
2024-01-22T13:04:27.185Z,23.60
2024-01-22T13:07:30.125Z,28.50
2024-01-22T13:10:34.814Z,25.23
2024-01-22T13:13:37.697Z,24.97
2024-01-22T13:16:40.589Z,24.97
2024-01-22T13:19:43.827Z,22.88
2024-01-22T13:22:46.666Z,25.58
2024-01-22T13:25:49.802Z,24.67
2024-01-22T13:28:53.592Z,27.13
2024-01-22T13:31:57.171Z,30.53
2024-01-22T13:35:00.269Z,29.10
2024-01-22T13:38:05.672Z,24.55
2024-01-22T13:41:08.918Z,24.10
2024-01-22T13:44:16.472Z,25.80
2024-01-22T13:47:32.979Z,23.20
2024-01-22T13:50:40.352Z,21.33
2024-01-22T13:53:46.420Z,22.77
2024-01-22T13:56:49.809Z,22.58
2024-01-22T13:59:52.809Z,21.33
2024-01-22T14:02:55.623Z,24.83
2024-01-22T14:05:58.528Z,25.10
2024-01-22T14:09:01.559Z,22.27
2024-01-22T14:12:06.623Z,26.58
2024-01-22T14:15:11.145Z,18.60
2024-01-22T14:18:18.353Z,19.57
2024-01-22T14:21:21.924Z,23.45
2024-01-22T14:24:24.741Z,22.60
2024-01-22T14:27:27.605Z,25.13
2024-01-22T14:30:31.212Z,29.47
2024-01-22T14:33:34.109Z,27.77
2024-01-22T14:36:37.167Z,24.63
2024-01-22T14:39:40.266Z,20.67
2024-01-22T14:42:43.242Z,25.48
2024-01-22T14:45:46.080Z,22.17
2024-01-22T14:48:55.686Z,28.27
2024-01-22T14:52:04.545Z,23.77
2024-01-22T14:55:08.442Z,19.90
2024-01-22T14:58:11.214Z,23.63
2024-01-22T15:01:13.888Z,21.93
2024-01-22T15:04:16.729Z,28.67
2024-01-22T15:07:19.623Z,29.13
2024-01-22T15:10:22.388Z,33.70
2024-01-22T15:13:25.076Z,27.10
2024-01-22T15:16:29.078Z,28.03
2024-01-22T15:19:32.018Z,31.93
2024-01-22T15:22:34.973Z,40.13
2024-01-22T15:25:37.862Z,41.78
2024-01-22T15:28:42.182Z,40.30
2024-01-22T15:31:47.407Z,36.63
2024-01-22T15:34:50.479Z,29.47
2024-01-22T15:37:53.247Z,35.08
2024-01-22T15:40:56.516Z,29.23
2024-01-22T15:43:59.982Z,32.53
2024-01-22T15:47:02.699Z,34.50
2024-01-22T15:50:06.455Z,41.53
2024-01-22T15:53:09.203Z,40.70
2024-01-22T15:56:12.184Z,66.97
2024-01-22T15:59:14.896Z,74.68
2024-01-22T16:02:17.617Z,119.00
2024-01-22T16:05:20.453Z,130.83
2024-01-22T16:08:23.464Z,114.68
2024-01-22T16:11:29.439Z,98.10
2024-01-22T16:14:32.228Z,110.40
2024-01-22T16:17:35.014Z,107.13
2024-01-22T16:20:39.649Z,92.80
2024-01-22T16:23:42.396Z,81.30
2024-01-22T16:26:45.204Z,69.07
2024-01-22T16:29:49.976Z,65.63
2024-01-22T16:32:53.039Z,57.17
2024-01-22T16:35:56.823Z,50.47
2024-01-22T16:39:01.484Z,58.83
2024-01-22T16:42:05.889Z,47.15
2024-01-22T16:45:08.984Z,53.15
2024-01-22T16:48:12.390Z,47.57
2024-01-22T16:51:15.337Z,55.43
2024-01-22T16:54:18.210Z,54.38
2024-01-22T16:57:21.126Z,58.90
2024-01-22T17:00:24.241Z,58.28
2024-01-22T17:03:27.835Z,65.90
2024-01-22T17:06:30.924Z,61.70
2024-01-22T17:09:34.138Z,60.95
2024-01-22T17:12:39.740Z,58.65
2024-01-22T17:15:46.667Z,46.85
2024-01-22T17:18:50.558Z,49.77
2024-01-22T17:21:55.177Z,47.97
2024-01-22T17:24:58.979Z,44.80
2024-01-22T17:28:01.968Z,54.53
2024-01-22T17:31:06.595Z,52.13
2024-01-22T17:34:10.079Z,49.80
2024-01-22T17:37:13.910Z,52.60
2024-01-22T17:40:16.940Z,54.03
2024-01-22T17:43:19.780Z,54.10
2024-01-22T17:46:23.212Z,57.97
2024-01-22T17:49:26.150Z,56.03
2024-01-22T17:52:29.345Z,61.10
2024-01-22T17:55:34.365Z,56.20
2024-01-22T17:58:37.300Z,57.42
2024-01-22T18:01:40.336Z,50.13
2024-01-22T18:04:43.661Z,61.77
2024-01-22T18:07:46.781Z,51.00
2024-01-22T18:10:50.907Z,52.28
2024-01-22T18:13:53.969Z,60.55
2024-01-22T18:16:56.848Z,61.25
2024-01-22T18:19:59.666Z,67.03
2024-01-22T18:23:02.777Z,59.20
2024-01-22T18:26:05.619Z,57.80
2024-01-22T18:29:09.751Z,56.85
2024-01-22T18:32:12.805Z,62.53
2024-01-22T18:35:16.110Z,62.17
2024-01-22T18:38:18.930Z,50.00
2024-01-22T18:41:26.352Z,54.85
2024-01-22T18:44:29.150Z,58.42
2024-01-22T18:47:32.760Z,59.30
2024-01-22T18:50:36.995Z,53.03
2024-01-22T18:53:41.434Z,53.50
2024-01-22T18:56:46.770Z,57.17
2024-01-22T18:59:50.773Z,63.75
2024-01-22T19:02:55.041Z,60.22
2024-01-22T19:06:03.246Z,53.37
2024-01-22T19:09:09.242Z,56.57
2024-01-22T19:12:12.042Z,69.03
2024-01-22T19:15:14.879Z,59.45
2024-01-22T19:18:17.834Z,57.20
2024-01-22T19:21:20.678Z,55.20
2024-01-22T19:24:23.532Z,56.17
2024-01-22T19:27:26.318Z,63.30
2024-01-22T19:30:29.613Z,53.78
2024-01-22T19:33:32.694Z,57.80
2024-01-22T19:36:35.461Z,55.97
2024-01-22T19:39:38.408Z,60.40
2024-01-22T19:42:41.200Z,70.53
2024-01-22T19:45:44.381Z,79.28
2024-01-22T19:48:47.175Z,80.00
2024-01-22T19:51:50.440Z,69.87
2024-01-22T19:54:53.321Z,85.23
2024-01-22T19:57:56.146Z,67.25
2024-01-22T20:00:59.465Z,67.13
2024-01-22T20:04:02.617Z,72.15
2024-01-22T20:07:06.898Z,76.40
2024-01-22T20:10:10.535Z,80.33
2024-01-22T20:13:13.323Z,74.18
2024-01-22T20:16:16.348Z,95.47
2024-01-22T20:19:19.427Z,139.00
2024-01-22T20:22:22.578Z,99.93
2024-01-22T20:25:25.256Z,92.80
2024-01-22T20:28:28.329Z,157.95
2024-01-22T20:31:31.217Z,144.20
2024-01-22T20:34:34.243Z,126.55
2024-01-22T20:37:38.763Z,103.13
2024-01-22T20:40:43.416Z,92.90
2024-01-22T20:43:46.487Z,95.53
2024-01-22T20:46:49.304Z,106.15
2024-01-22T20:49:52.510Z,109.70
2024-01-22T20:52:55.327Z,150.50
2024-01-22T20:55:58.176Z,109.93
2024-01-22T20:59:01.683Z,120.00
2024-01-22T21:02:04.687Z,116.78
2024-01-22T21:05:09.215Z,116.35
2024-01-22T21:08:12.226Z,135.83
2024-01-22T21:11:14.974Z,123.93
2024-01-22T21:14:17.737Z,120.32
2024-01-22T21:17:20.495Z,131.25
2024-01-22T21:20:23.650Z,118.22
2024-01-22T21:23:26.488Z,119.70
2024-01-22T21:26:29.629Z,125.83
2024-01-22T21:29:32.840Z,122.28
2024-01-22T21:32:35.538Z,116.82
2024-01-22T21:35:38.224Z,114.38
2024-01-22T21:38:40.916Z,121.83
2024-01-22T21:41:43.686Z,116.73
2024-01-22T21:44:47.175Z,122.68
2024-01-22T21:47:50.437Z,120.88
2024-01-22T21:50:53.566Z,117.32
2024-01-22T21:53:56.273Z,92.23
2024-01-22T21:56:59.351Z,109.17
2024-01-22T22:00:07.522Z,111.55
2024-01-22T22:03:17.449Z,110.55
2024-01-22T22:06:20.519Z,114.40
2024-01-22T22:09:25.329Z,109.27
2024-01-22T22:12:28.188Z,91.80
2024-01-22T22:15:31.132Z,87.47
2024-01-22T22:18:34.064Z,88.50
2024-01-22T22:21:52.989Z,94.38
2024-01-22T22:24:55.700Z,100.20
2024-01-22T22:27:58.517Z,95.73
2024-01-22T22:31:01.185Z,106.68
2024-01-22T22:34:05.119Z,99.40
2024-01-22T22:37:07.885Z,82.72
2024-01-22T22:40:11.417Z,82.10
2024-01-22T22:43:14.494Z,83.57
2024-01-22T22:46:17.145Z,79.93
2024-01-22T22:49:19.893Z,97.38
2024-01-22T22:52:22.688Z,78.43
2024-01-22T22:55:25.344Z,73.80
2024-01-22T22:58:29.383Z,76.70
2024-01-22T23:01:32.171Z,78.85
2024-01-22T23:04:35.225Z,93.00
2024-01-22T23:07:38.068Z,88.05
2024-01-22T23:10:40.720Z,83.70
2024-01-22T23:13:43.956Z,94.90
2024-01-22T23:16:46.616Z,108.47
2024-01-22T23:19:49.795Z,90.53
2024-01-22T23:22:52.535Z,93.65
2024-01-22T23:25:55.663Z,94.33
2024-01-22T23:28:58.328Z,82.47
2024-01-22T23:32:01.007Z,87.35
2024-01-22T23:35:04.597Z,80.93
2024-01-22T23:38:07.240Z,84.13
2024-01-22T23:41:10.518Z,85.97
2024-01-22T23:44:13.313Z,84.50
2024-01-22T23:47:16.015Z,72.63
2024-01-22T23:50:19.166Z,80.63
2024-01-22T23:53:21.981Z,76.00
2024-01-22T23:56:25.422Z,91.90
2024-01-22T23:59:28.207Z,79.57
